Glenview, IL (60025)

12:31 PM CDT on September 19, 2019 (GMT -0500)
Glenview | | Change Station
Active Advisory: Flood Warning

Elev 666 ft 42.07 °N, 87.78 °W | Updated 15 minutes ago

Partly Cloudy
Partly Cloudy
83.1 °F
Feels Like 85 °F
N
0
Wind Variable Wind from West
Gusts 1.0 mph

Today
High -- | Low -- °F
--% Chance of Precip.
Yesterday
High -- | Low -- °F
Precip. -- in
Pressure 30.10 in
Visibility 10.0 miles
Clouds Clear
Heat Index 85 °F
Dew Point 65 °F
Humidity 54%
Rainfall 0.00 in
Snow Depth Not available.
6:35 AM 6:54 PM
Waning Gibbous, 74% visible
METAR KPWK 191652Z VRB03KT 10SM CLR 28/16 A3011 RMK AO2 SLP192 T02780156
Pressure 30.10 in
Visibility 10.0 miles
Clouds Clear
Heat Index 85 °F
Dew Point 65 °F
Humidity 54%
Rainfall 0.00 in
Snow Depth Not available.
6:35 AM 6:54 PM
Waning Gibbous, 74% visible
METAR KPWK 191652Z VRB03KT 10SM CLR 28/16 A3011 RMK AO2 SLP192 T02780156

Get Your Daily Forecast Email!

Thanks for signing up!

Be on the lookout for a verification email in your inbox.

You'll start receiving severe weather alerts in your inbox..

×

10-Day Weather Forecast

Almanac

Astronomy

Sep. 19, 2019 Rise Set
Actual Time
Civil Twilight
Nautical Twilight
Astronomical Twilight
Moon
Length of Visible Light
Length of Day
Tomorrow will be .
, % of the Moon is Illuminated

Today's Extremes

State Highs State Lows

Community

WunderPhotos

Category 6

Welcome to Category 6. This is the collective home for Weather Underground's featured writeups by Dr. Jeff Masters (right), Bob Henson (left), Chris Burt, and other regular contributors.

Nearby

Air Quality

  Air Quality AQ Index Pollutant
Not available.

Snow Depth

Station Depth Elevation

Earthquake Activity

City Distance Mag. Time & Date
Minimum magnitude displayed is 2.5.

Coastal Water Temperatures

Place Temperature

Stations

Nearby Weather Stations

Station Location Temp. Windchill Dew Point Humidity Wind Precip. Elev Updated Type
                   

Watches & Warnings

Flood Warning
Issued: 9:53 AM CDT Sep. 19, 2019 – National Weather Service

The Flood Warning continues for
the Des Plaines river near Des Plaines, or from Palatine Road in
Prospect Heights downstream to Irving Park Road in Chicago.
* Until Saturday afternoon.
* At 945 am Thursday the stage was 16.4 feet.
* Flood stage is 15.0 feet.
* Minor flooding is occurring and minor flooding is forecast.
* Forecast... the river will continue to fall to below flood stage by
Saturday morning.


Lat... Lon 4212 8794 4212 8784 4197 8780 4196 8790